createdAt,value
2023-04-21T00:00:24.232Z,88.61
2023-04-21T00:05:26.651Z,89.24
2023-04-21T00:10:27.350Z,88.35
2023-04-21T00:15:27.947Z,88.81
2023-04-21T00:20:30.597Z,89.69
2023-04-21T00:25:31.292Z,89.36
2023-04-21T00:30:31.908Z,89.30
2023-04-21T00:35:33.901Z,89.38
2023-04-21T00:40:34.853Z,89.79
2023-04-21T00:45:36.014Z,89.97
2023-04-21T00:50:38.154Z,89.31
2023-04-21T00:55:40.532Z,90.18
2023-04-21T01:00:42.998Z,89.62
2023-04-21T01:05:44.926Z,89.60
2023-04-21T01:10:45.901Z,89.46
2023-04-21T01:15:46.547Z,89.37
2023-04-21T01:20:50.016Z,89.95
2023-04-21T01:25:52.748Z,89.16
2023-04-21T01:30:54.138Z,89.52
2023-04-21T01:35:56.378Z,90.68
2023-04-21T01:40:58.385Z,90.26
2023-04-21T01:45:59.038Z,90.27
2023-04-21T01:50:59.658Z,90.41
2023-04-21T01:56:01.650Z,90.83
2023-04-21T02:01:04.945Z,90.05
2023-04-21T02:06:06.060Z,90.08
2023-04-21T02:11:08.351Z,90.56
2023-04-21T02:16:13.911Z,90.54
2023-04-21T02:21:15.467Z,90.29
2023-04-21T02:26:17.887Z,90.63
2023-04-21T02:31:18.744Z,90.10
2023-04-21T02:36:19.358Z,90.51
2023-04-21T02:41:21.286Z,90.85
2023-04-21T02:46:21.865Z,90.68
2023-04-21T02:51:23.562Z,90.75
2023-04-21T02:56:25.670Z,90.46
2023-04-21T03:01:26.355Z,90.47
2023-04-21T03:06:28.245Z,90.95
2023-04-21T03:11:30.208Z,90.48
2023-04-21T03:16:30.793Z,90.88
2023-04-21T03:21:31.869Z,90.70
2023-04-21T03:26:33.998Z,90.83
2023-04-21T03:31:34.613Z,90.84
2023-04-21T03:36:35.238Z,90.17
2023-04-21T03:41:37.269Z,90.72
2023-04-21T03:46:38.008Z,90.60
2023-04-21T03:51:38.614Z,91.03
2023-04-21T03:56:40.492Z,90.21
2023-04-21T04:01:42.267Z,90.94
2023-04-21T04:06:42.907Z,91.22
2023-04-21T04:11:44.809Z,92.00
2023-04-21T04:16:45.798Z,92.30
2023-04-21T04:21:48.848Z,91.85
2023-04-21T04:26:51.219Z,89.86
2023-04-21T04:31:52.164Z,90.17
2023-04-21T04:36:52.722Z,89.97
2023-04-21T04:41:54.603Z,90.20
2023-04-21T04:46:55.316Z,89.66
2023-04-21T04:51:56.133Z,89.62
2023-04-21T04:56:58.702Z,89.40
2023-04-21T05:01:59.325Z,88.86
2023-04-21T05:06:59.962Z,89.48
2023-04-21T05:12:02.470Z,89.22
2023-04-21T05:17:03.206Z,88.53
2023-04-21T05:22:06.455Z,88.29
2023-04-21T05:27:08.375Z,87.52
2023-04-21T05:32:09.192Z,88.28
2023-04-21T05:37:11.501Z,87.64
2023-04-21T05:42:13.439Z,87.67
2023-04-21T05:47:14.044Z,87.55
2023-04-21T05:52:14.621Z,87.30
2023-04-21T05:57:17.770Z,87.12
2023-04-21T06:02:18.708Z,87.15
2023-04-21T06:07:19.686Z,86.11
2023-04-21T06:12:21.575Z,85.91
2023-04-21T06:17:22.480Z,85.04
2023-04-21T06:22:23.358Z,84.85
2023-04-21T06:27:25.278Z,84.43
2023-04-21T06:32:25.972Z,83.78
2023-04-21T06:37:26.787Z,83.80
2023-04-21T06:42:28.725Z,82.37
2023-04-21T06:47:29.310Z,82.73
2023-04-21T06:52:29.970Z,82.16
2023-04-21T06:57:31.860Z,81.73
2023-04-21T07:02:32.614Z,81.04
2023-04-21T07:07:33.221Z,79.87
2023-04-21T07:12:35.099Z,79.10
2023-04-21T07:17:35.918Z,78.32
2023-04-21T07:22:37.005Z,76.47
2023-04-21T07:27:39.390Z,74.71
2023-04-21T07:32:40.083Z,74.62
2023-04-21T07:37:41.095Z,74.36
2023-04-21T07:42:43.131Z,73.19
2023-04-21T07:47:43.800Z,72.11
2023-04-21T07:52:44.506Z,71.23
2023-04-21T07:57:46.502Z,70.28
2023-04-21T08:02:47.259Z,68.62
2023-04-21T08:07:48.124Z,68.22
2023-04-21T08:12:50.094Z,66.90
2023-04-21T08:17:50.692Z,63.89
2023-04-21T08:22:51.413Z,61.35
2023-04-21T08:27:53.385Z,58.05
2023-04-21T08:32:54.015Z,55.33
2023-04-21T08:37:54.680Z,50.29
2023-04-21T08:42:59.255Z,48.87
2023-04-21T08:48:01.405Z,45.16
2023-04-21T08:53:02.084Z,44.15
2023-04-21T08:58:06.836Z,43.05
2023-04-21T09:03:19.241Z,41.49
2023-04-21T09:08:27.994Z,41.20
2023-04-21T09:13:34.358Z,41.67
2023-04-21T09:18:36.206Z,39.79
2023-04-21T09:23:44.455Z,39.79
2023-04-21T09:28:47.750Z,40.00
2023-04-21T09:39:17.793Z,38.24
2023-04-21T09:44:21.480Z,38.03
2023-04-21T09:49:24.188Z,36.37
2023-04-21T09:54:30.550Z,34.89
2023-04-21T09:59:36.595Z,35.11
2023-04-21T10:04:38.891Z,33.97
2023-04-21T10:09:45.896Z,31.92
2023-04-21T10:14:51.186Z,31.14
2023-04-21T10:19:53.550Z,30.72
2023-04-21T10:24:56.678Z,31.90
2023-04-21T10:29:59.564Z,30.40
2023-04-21T10:35:00.120Z,30.17
2023-04-21T10:40:00.713Z,29.91
2023-04-21T10:45:08.357Z,30.19
2023-04-21T10:50:14.879Z,30.38
2023-04-21T10:55:17.019Z,30.85
2023-04-21T11:00:21.712Z,30.14
2023-04-21T11:05:28.854Z,28.97
2023-04-21T11:10:29.472Z,27.63
2023-04-21T11:15:32.069Z,26.67
2023-04-21T11:20:32.767Z,27.07
2023-04-21T11:25:33.601Z,27.43
2023-04-21T11:30:36.125Z,26.61
2023-04-21T11:35:41.683Z,27.65
2023-04-21T11:40:47.503Z,27.32
2023-04-21T11:45:51.668Z,27.98
2023-04-21T11:50:52.283Z,27.49
2023-04-21T11:55:53.965Z,28.00
2023-04-21T12:00:56.173Z,27.84
2023-04-21T12:05:57.651Z,29.33
2023-04-21T12:10:59.269Z,28.13
2023-04-21T12:16:04.119Z,29.31
2023-04-21T12:21:05.314Z,27.79
2023-04-21T12:26:06.101Z,27.55
2023-04-21T12:31:08.096Z,27.20
2023-04-21T12:36:13.622Z,26.43
2023-04-21T12:41:27.426Z,26.38
2023-04-21T12:46:29.645Z,26.65
2023-04-21T12:51:31.550Z,25.93
2023-04-21T12:56:32.143Z,26.12
2023-04-21T13:01:34.215Z,25.53
2023-04-21T13:06:34.889Z,26.28
2023-04-21T13:11:35.592Z,25.13
2023-04-21T13:16:37.678Z,25.10
2023-04-21T13:21:38.542Z,24.19
2023-04-21T13:26:39.183Z,24.78
2023-04-21T13:31:41.340Z,24.24
2023-04-21T13:36:42.254Z,26.25
2023-04-21T13:41:42.989Z,27.06
2023-04-21T13:46:45.164Z,27.26
2023-04-21T13:51:45.882Z,24.33
2023-04-21T13:56:46.599Z,24.83
2023-04-21T14:01:48.799Z,25.11
2023-04-21T14:06:49.870Z,26.31
2023-04-21T14:11:51.112Z,26.52
2023-04-21T14:16:53.200Z,27.16
2023-04-21T14:21:54.017Z,27.55
2023-04-21T14:26:54.714Z,28.21
2023-04-21T14:31:58.588Z,27.22
2023-04-21T14:37:00.513Z,28.96
2023-04-21T14:42:01.872Z,29.01
2023-04-21T14:47:09.807Z,29.22
2023-04-21T14:52:11.562Z,29.28
2023-04-21T14:57:20.686Z,27.53
2023-04-21T15:02:23.920Z,27.83
2023-04-21T15:07:25.114Z,28.23
2023-04-21T15:12:26.265Z,28.80
2023-04-21T15:17:28.384Z,29.87
2023-04-21T15:22:29.207Z,29.91
2023-04-21T15:27:30.233Z,30.53
2023-04-21T15:32:32.375Z,29.27
2023-04-21T15:37:33.169Z,29.33
2023-04-21T15:42:33.864Z,30.36
2023-04-21T15:47:35.929Z,30.73
2023-04-21T15:52:37.770Z,31.77
2023-04-21T15:57:38.788Z,31.91
2023-04-21T16:02:41.132Z,32.22
2023-04-21T16:07:43.396Z,32.37
2023-04-21T16:12:45.472Z,32.04
2023-04-21T16:17:48.847Z,32.28
2023-04-21T16:22:50.120Z,33.37
2023-04-21T16:27:50.856Z,33.12
2023-04-21T16:32:52.862Z,33.25
2023-04-21T16:37:53.620Z,32.20
2023-04-21T16:42:54.387Z,31.29
2023-04-21T16:47:56.543Z,30.21
2023-04-21T16:52:57.425Z,29.80
2023-04-21T16:57:58.112Z,28.89
2023-04-21T17:03:00.324Z,28.59
2023-04-21T17:08:01.271Z,28.58
2023-04-21T17:13:02.031Z,27.88
2023-04-21T17:18:04.201Z,28.18
2023-04-21T17:23:05.059Z,28.80
2023-04-21T17:28:06.229Z,30.53
2023-04-21T17:33:15.877Z,31.43
2023-04-21T17:38:18.087Z,33.15
2023-04-21T17:43:18.756Z,33.67
2023-04-21T17:48:21.019Z,36.01
2023-04-21T17:53:21.725Z,37.64
2023-04-21T17:58:22.608Z,41.28
2023-04-21T18:03:24.852Z,39.66
2023-04-21T18:08:26.415Z,40.66
2023-04-21T18:13:27.133Z,42.26
2023-04-21T18:18:29.869Z,42.34
2023-04-21T18:23:30.514Z,41.32
2023-04-21T18:28:32.016Z,41.61
2023-04-21T18:33:34.051Z,41.77
2023-04-21T18:38:34.778Z,42.11
2023-04-21T18:43:35.560Z,43.96
2023-04-21T18:48:37.572Z,43.25
2023-04-21T18:53:38.231Z,43.18
2023-04-21T18:58:38.957Z,43.49
2023-04-21T19:03:41.183Z,43.89
2023-04-21T19:08:43.128Z,43.75
2023-04-21T19:13:44.024Z,44.46
2023-04-21T19:18:47.326Z,44.56
2023-04-21T19:23:48.308Z,45.19
2023-04-21T19:28:49.254Z,45.63
2023-04-21T19:33:52.439Z,45.53
2023-04-21T19:38:53.159Z,46.03
2023-04-21T19:43:53.861Z,46.07
2023-04-21T19:48:55.886Z,46.59
2023-04-21T19:54:10.089Z,46.22
2023-04-21T19:59:12.368Z,47.16
2023-04-21T20:04:14.553Z,46.67
2023-04-21T20:09:16.082Z,46.69
2023-04-21T20:14:18.335Z,47.57
2023-04-21T20:19:23.018Z,46.93
2023-04-21T20:24:23.985Z,47.85
2023-04-21T20:29:24.698Z,47.61
2023-04-21T20:34:26.781Z,47.25
2023-04-21T20:39:27.448Z,47.32
2023-04-21T20:44:31.409Z,48.57
2023-04-21T20:49:33.510Z,49.30
2023-04-21T20:54:34.830Z,49.42
2023-04-21T20:59:36.023Z,50.48
2023-04-21T21:04:38.261Z,50.12
2023-04-21T21:09:39.943Z,50.38
2023-04-21T21:14:41.080Z,51.75
2023-04-21T21:19:43.129Z,52.03
2023-04-21T21:24:43.991Z,52.25
2023-04-21T21:29:44.710Z,53.39
2023-04-21T21:34:46.725Z,53.46
2023-04-21T21:39:47.361Z,54.31
2023-04-21T21:44:47.999Z,54.78
2023-04-21T21:49:54.704Z,55.34
2023-04-21T21:54:56.889Z,56.69
2023-04-21T21:59:57.600Z,57.56
2023-04-21T22:04:59.805Z,57.23
2023-04-21T22:10:00.591Z,58.62
2023-04-21T22:15:01.235Z,59.05
2023-04-21T22:20:08.162Z,59.04
2023-04-21T22:25:10.835Z,59.02
2023-04-21T22:30:12.332Z,60.04
2023-04-21T22:35:14.427Z,60.27
2023-04-21T22:40:15.198Z,61.62
2023-04-21T22:45:15.878Z,61.88
2023-04-21T22:50:17.869Z,62.13
2023-04-21T22:55:18.790Z,62.33
2023-04-21T23:00:19.450Z,62.45
2023-04-21T23:05:21.417Z,63.42
2023-04-21T23:10:22.247Z,62.69
2023-04-21T23:15:22.963Z,63.35
2023-04-21T23:20:25.014Z,64.02
2023-04-21T23:25:25.764Z,64.07
2023-04-21T23:30:26.443Z,65.25
2023-04-21T23:35:28.682Z,65.24
2023-04-21T23:40:29.573Z,65.61
2023-04-21T23:45:30.389Z,66.31
2023-04-21T23:50:32.525Z,65.52
2023-04-21T23:55:33.239Z,66.38
